sensor_id;sensor_type;location;lat;lon;timestamp;pressure;altitude;pressure_sealevel;temperature;humidity
11712;BME280;5912;51.034;6.984;2023-07-13T00:00:27;56198.06;;;-142.13;45.50
11712;BME280;5912;51.034;6.984;2023-07-13T00:02:53;56192.06;;;-142.13;45.63
11712;BME280;5912;51.034;6.984;2023-07-13T00:05:22;56196.06;;;-142.13;46.16
11712;BME280;5912;51.034;6.984;2023-07-13T00:07:48;56198.06;;;-142.13;46.34
11712;BME280;5912;51.034;6.984;2023-07-13T00:10:14;56212.09;;;-142.13;46.54
11712;BME280;5912;51.034;6.984;2023-07-13T00:12:40;56188.06;;;-142.13;46.72
11712;BME280;5912;51.034;6.984;2023-07-13T00:15:12;56204.09;;;-142.13;46.87
11712;BME280;5912;51.034;6.984;2023-07-13T00:17:39;56184.06;;;-142.13;46.58
11712;BME280;5912;51.034;6.984;2023-07-13T00:20:05;56208.09;;;-142.13;46.69
11712;BME280;5912;51.034;6.984;2023-07-13T00:22:31;56212.09;;;-142.13;46.65
11712;BME280;5912;51.034;6.984;2023-07-13T00:24:57;56196.06;;;-142.13;46.83
11712;BME280;5912;51.034;6.984;2023-07-13T00:27:23;56194.06;;;-142.13;46.82
11712;BME280;5912;51.034;6.984;2023-07-13T00:29:48;56202.09;;;-142.13;46.94
11712;BME280;5912;51.034;6.984;2023-07-13T00:32:14;56200.09;;;-142.13;46.83
11712;BME280;5912;51.034;6.984;2023-07-13T00:34:39;56180.06;;;-142.13;46.60
11712;BME280;5912;51.034;6.984;2023-07-13T00:37:06;56184.06;;;-142.13;46.27
11712;BME280;5912;51.034;6.984;2023-07-13T00:39:33;56204.09;;;-142.13;46.16
11712;BME280;5912;51.034;6.984;2023-07-13T00:41:59;56198.06;;;-142.13;46.23
11712;BME280;5912;51.034;6.984;2023-07-13T00:44:24;56204.09;;;-142.13;46.68
11712;BME280;5912;51.034;6.984;2023-07-13T00:46:50;56204.09;;;-142.13;46.81
11712;BME280;5912;51.034;6.984;2023-07-13T00:49:18;56188.06;;;-142.13;46.86
11712;BME280;5912;51.034;6.984;2023-07-13T00:51:54;56208.09;;;-142.13;47.02
11712;BME280;5912;51.034;6.984;2023-07-13T00:54:28;56198.06;;;-142.13;47.07
11712;BME280;5912;51.034;6.984;2023-07-13T00:56:57;56192.06;;;-142.13;47.34
11712;BME280;5912;51.034;6.984;2023-07-13T00:59:24;56202.09;;;-142.13;47.06
11712;BME280;5912;51.034;6.984;2023-07-13T01:01:49;56194.06;;;-142.13;47.25
11712;BME280;5912;51.034;6.984;2023-07-13T01:04:15;56192.06;;;-142.13;47.04
11712;BME280;5912;51.034;6.984;2023-07-13T01:06:41;56224.13;;;-142.13;46.89
11712;BME280;5912;51.034;6.984;2023-07-13T01:09:09;56180.06;;;-142.13;47.00
11712;BME280;5912;51.034;6.984;2023-07-13T01:11:35;56178.03;;;-142.13;47.15
11712;BME280;5912;51.034;6.984;2023-07-13T01:14:01;56182.06;;;-142.13;47.25
11712;BME280;5912;51.034;6.984;2023-07-13T01:16:33;56212.09;;;-142.13;47.78
11712;BME280;5912;51.034;6.984;2023-07-13T01:18:59;56184.06;;;-142.13;47.87
11712;BME280;5912;51.034;6.984;2023-07-13T01:21:27;56192.06;;;-142.13;48.02
11712;BME280;5912;51.034;6.984;2023-07-13T01:23:52;56222.13;;;-142.13;47.95
11712;BME280;5912;51.034;6.984;2023-07-13T01:26:18;56204.09;;;-142.13;48.05
11712;BME280;5912;51.034;6.984;2023-07-13T01:28:43;56196.06;;;-142.13;48.10
11712;BME280;5912;51.034;6.984;2023-07-13T01:31:10;56204.09;;;-142.13;48.45
11712;BME280;5912;51.034;6.984;2023-07-13T01:33:38;56208.09;;;-142.13;48.43
11712;BME280;5912;51.034;6.984;2023-07-13T01:36:05;56188.06;;;-142.13;48.38
11712;BME280;5912;51.034;6.984;2023-07-13T01:38:31;56184.06;;;-142.13;48.61
11712;BME280;5912;51.034;6.984;2023-07-13T01:40:56;56194.06;;;-142.13;48.40
11712;BME280;5912;51.034;6.984;2023-07-13T01:43:22;56228.13;;;-142.13;48.51
11712;BME280;5912;51.034;6.984;2023-07-13T01:45:47;56232.13;;;-142.13;48.81
11712;BME280;5912;51.034;6.984;2023-07-13T01:48:13;56170.03;;;-142.13;48.75
11712;BME280;5912;51.034;6.984;2023-07-13T01:50:39;56192.06;;;-142.13;48.81
11712;BME280;5912;51.034;6.984;2023-07-13T01:53:04;56228.13;;;-142.13;48.91
11712;BME280;5912;51.034;6.984;2023-07-13T01:55:30;56256.16;;;-142.13;48.95
11712;BME280;5912;51.034;6.984;2023-07-13T01:57:56;56208.09;;;-142.13;49.06
11712;BME280;5912;51.034;6.984;2023-07-13T02:00:21;56204.09;;;-142.13;49.00
11712;BME280;5912;51.034;6.984;2023-07-13T02:02:47;56224.13;;;-142.13;49.32
11712;BME280;5912;51.034;6.984;2023-07-13T02:05:13;56220.13;;;-142.13;49.35
11712;BME280;5912;51.034;6.984;2023-07-13T02:07:39;56240.16;;;-142.13;49.50
11712;BME280;5912;51.034;6.984;2023-07-13T02:10:06;56204.09;;;-142.13;49.47
11712;BME280;5912;51.034;6.984;2023-07-13T02:12:32;56208.09;;;-142.13;49.60
11712;BME280;5912;51.034;6.984;2023-07-13T02:14:57;56212.09;;;-142.13;49.77
11712;BME280;5912;51.034;6.984;2023-07-13T02:17:23;56164.03;;;-142.13;50.07
11712;BME280;5912;51.034;6.984;2023-07-13T02:19:48;56224.13;;;-142.13;50.23
11712;BME280;5912;51.034;6.984;2023-07-13T02:22:14;56208.09;;;-142.13;50.46
11712;BME280;5912;51.034;6.984;2023-07-13T02:24:39;56240.16;;;-142.13;50.84
11712;BME280;5912;51.034;6.984;2023-07-13T02:27:05;56222.13;;;-142.13;51.08
11712;BME280;5912;51.034;6.984;2023-07-13T02:29:30;56226.13;;;-142.13;51.41
11712;BME280;5912;51.034;6.984;2023-07-13T02:31:56;56218.09;;;-142.13;51.70
11712;BME280;5912;51.034;6.984;2023-07-13T02:34:21;56208.09;;;-142.13;51.74
11712;BME280;5912;51.034;6.984;2023-07-13T02:36:46;56224.13;;;-142.13;51.75
11712;BME280;5912;51.034;6.984;2023-07-13T02:39:13;56232.13;;;-142.13;51.85
11712;BME280;5912;51.034;6.984;2023-07-13T02:41:38;56198.06;;;-142.13;52.08
11712;BME280;5912;51.034;6.984;2023-07-13T02:44:04;56208.09;;;-142.13;52.32
11712;BME280;5912;51.034;6.984;2023-07-13T02:46:31;56232.13;;;-142.13;52.28
11712;BME280;5912;51.034;6.984;2023-07-13T02:48:56;56214.09;;;-142.13;52.23
11712;BME280;5912;51.034;6.984;2023-07-13T02:51:22;56260.19;;;-142.13;52.16
11712;BME280;5912;51.034;6.984;2023-07-13T02:53:47;56250.16;;;-142.13;51.98
11712;BME280;5912;51.034;6.984;2023-07-13T02:56:12;56240.16;;;-142.13;51.96
11712;BME280;5912;51.034;6.984;2023-07-13T02:58:38;56204.09;;;-142.13;51.82
11712;BME280;5912;51.034;6.984;2023-07-13T03:01:08;56232.13;;;-142.13;51.82
11712;BME280;5912;51.034;6.984;2023-07-13T03:03:34;56230.13;;;-142.13;52.20
11712;BME280;5912;51.034;6.984;2023-07-13T03:06:01;56214.09;;;-142.13;52.23
11712;BME280;5912;51.034;6.984;2023-07-13T03:08:27;56258.16;;;-142.13;52.16
11712;BME280;5912;51.034;6.984;2023-07-13T03:11:12;56248.16;;;-142.13;52.02
11712;BME280;5912;51.034;6.984;2023-07-13T03:13:39;56244.16;;;-142.13;52.27
11712;BME280;5912;51.034;6.984;2023-07-13T03:16:06;56256.16;;;-142.13;52.02
11712;BME280;5912;51.034;6.984;2023-07-13T03:18:32;56248.16;;;-142.13;51.90
11712;BME280;5912;51.034;6.984;2023-07-13T03:20:57;56238.13;;;-142.13;51.98
11712;BME280;5912;51.034;6.984;2023-07-13T03:23:23;56240.16;;;-142.13;52.03
11712;BME280;5912;51.034;6.984;2023-07-13T03:25:50;56224.13;;;-142.13;51.99
11712;BME280;5912;51.034;6.984;2023-07-13T03:28:16;56204.09;;;-142.13;51.82
11712;BME280;5912;51.034;6.984;2023-07-13T03:30:42;56194.06;;;-142.13;51.97
11712;BME280;5912;51.034;6.984;2023-07-13T03:33:08;56228.13;;;-142.13;51.95
11712;BME280;5912;51.034;6.984;2023-07-13T03:35:34;56238.13;;;-142.13;51.84
11712;BME280;5912;51.034;6.984;2023-07-13T03:37:59;56202.09;;;-142.13;51.92
11712;BME280;5912;51.034;6.984;2023-07-13T03:40:27;56228.13;;;-142.13;52.00
11712;BME280;5912;51.034;6.984;2023-07-13T03:42:52;56224.13;;;-142.13;51.75
11712;BME280;5912;51.034;6.984;2023-07-13T03:45:18;56250.16;;;-142.13;51.65
11712;BME280;5912;51.034;6.984;2023-07-13T03:47:44;56252.16;;;-142.13;51.61
11712;BME280;5912;51.034;6.984;2023-07-13T03:50:09;56214.09;;;-142.13;51.73
11712;BME280;5912;51.034;6.984;2023-07-13T03:52:35;56252.16;;;-142.13;51.60
11712;BME280;5912;51.034;6.984;2023-07-13T03:55:00;56234.13;;;-142.13;51.68
11712;BME280;5912;51.034;6.984;2023-07-13T03:57:25;56224.13;;;-142.13;51.72
11712;BME280;5912;51.034;6.984;2023-07-13T03:59:51;56256.16;;;-142.13;51.72
11712;BME280;5912;51.034;6.984;2023-07-13T04:02:16;56238.13;;;-142.13;51.69
11712;BME280;5912;51.034;6.984;2023-07-13T04:04:42;56244.16;;;-142.13;51.87
11712;BME280;5912;51.034;6.984;2023-07-13T04:07:08;56246.16;;;-142.13;51.91
11712;BME280;5912;51.034;6.984;2023-07-13T04:09:34;56224.13;;;-142.13;51.72
11712;BME280;5912;51.034;6.984;2023-07-13T04:11:59;56220.13;;;-142.13;51.67
11712;BME280;5912;51.034;6.984;2023-07-13T04:14:24;56226.13;;;-142.13;51.73
11712;BME280;5912;51.034;6.984;2023-07-13T04:16:50;56244.16;;;-142.13;51.51
11712;BME280;5912;51.034;6.984;2023-07-13T04:19:15;56204.09;;;-142.13;51.56
11712;BME280;5912;51.034;6.984;2023-07-13T04:21:40;56222.13;;;-142.13;51.57
11712;BME280;5912;51.034;6.984;2023-07-13T04:24:06;56236.13;;;-142.13;51.60
11712;BME280;5912;51.034;6.984;2023-07-13T04:26:32;56230.13;;;-142.13;51.69
11712;BME280;5912;51.034;6.984;2023-07-13T04:29:00;56232.13;;;-142.13;51.90
11712;BME280;5912;51.034;6.984;2023-07-13T04:31:28;56214.09;;;-142.13;51.79
11712;BME280;5912;51.034;6.984;2023-07-13T04:33:53;56212.09;;;-142.13;51.66
11712;BME280;5912;51.034;6.984;2023-07-13T04:36:19;56210.09;;;-142.13;51.53
11712;BME280;5912;51.034;6.984;2023-07-13T04:38:44;56226.13;;;-142.13;51.51
11712;BME280;5912;51.034;6.984;2023-07-13T04:41:10;56218.09;;;-142.13;51.66
11712;BME280;5912;51.034;6.984;2023-07-13T04:43:35;56212.09;;;-142.13;51.74
11712;BME280;5912;51.034;6.984;2023-07-13T04:46:06;56180.06;;;-142.13;51.90
11712;BME280;5912;51.034;6.984;2023-07-13T04:48:32;56210.09;;;-142.13;51.49
11712;BME280;5912;51.034;6.984;2023-07-13T04:50:58;56208.09;;;-142.13;51.49
11712;BME280;5912;51.034;6.984;2023-07-13T04:53:24;56188.06;;;-142.13;51.39
11712;BME280;5912;51.034;6.984;2023-07-13T04:55:50;56216.09;;;-142.13;51.25
11712;BME280;5912;51.034;6.984;2023-07-13T04:58:15;56196.06;;;-142.13;51.33
11712;BME280;5912;51.034;6.984;2023-07-13T05:00:41;56212.09;;;-142.13;51.16
11712;BME280;5912;51.034;6.984;2023-07-13T05:03:06;56196.06;;;-142.13;50.61
11712;BME280;5912;51.034;6.984;2023-07-13T05:05:32;56180.06;;;-142.13;50.91
11712;BME280;5912;51.034;6.984;2023-07-13T05:07:57;56196.06;;;-142.13;50.70
11712;BME280;5912;51.034;6.984;2023-07-13T05:10:23;56202.09;;;-142.13;50.67
11712;BME280;5912;51.034;6.984;2023-07-13T05:12:49;56212.09;;;-142.13;51.23
11712;BME280;5912;51.034;6.984;2023-07-13T05:15:15;56174.03;;;-142.13;51.13
11712;BME280;5912;51.034;6.984;2023-07-13T05:17:40;56202.09;;;-142.13;51.53
11712;BME280;5912;51.034;6.984;2023-07-13T05:20:07;56196.06;;;-142.13;51.18
11712;BME280;5912;51.034;6.984;2023-07-13T05:22:32;56176.03;;;-142.13;51.32
11712;BME280;5912;51.034;6.984;2023-07-13T05:25:00;56214.09;;;-142.13;50.75
11712;BME280;5912;51.034;6.984;2023-07-13T05:27:26;56160.03;;;-142.13;50.41
11712;BME280;5912;51.034;6.984;2023-07-13T05:29:51;56172.03;;;-142.13;50.00
11712;BME280;5912;51.034;6.984;2023-07-13T05:32:18;56180.06;;;-142.13;50.17
11712;BME280;5912;51.034;6.984;2023-07-13T05:34:43;56172.03;;;-142.13;49.26
11712;BME280;5912;51.034;6.984;2023-07-13T05:37:09;56137.97;;;-142.13;49.13
11712;BME280;5912;51.034;6.984;2023-07-13T05:39:34;56158.00;;;-142.13;49.39
11712;BME280;5912;51.034;6.984;2023-07-13T05:42:00;56184.06;;;-142.13;49.53
11712;BME280;5912;51.034;6.984;2023-07-13T05:44:25;56144.00;;;-142.13;48.98
11712;BME280;5912;51.034;6.984;2023-07-13T05:46:50;56156.00;;;-142.13;48.90
11712;BME280;5912;51.034;6.984;2023-07-13T05:49:16;56119.97;;;-142.13;48.39
11712;BME280;5912;51.034;6.984;2023-07-13T05:51:41;56168.03;;;-142.13;48.05
11712;BME280;5912;51.034;6.984;2023-07-13T05:54:06;56125.97;;;-142.13;47.31
11712;BME280;5912;51.034;6.984;2023-07-13T05:56:31;56146.00;;;-142.13;47.11
11712;BME280;5912;51.034;6.984;2023-07-13T05:58:57;56129.97;;;-142.13;46.37
11712;BME280;5912;51.034;6.984;2023-07-13T06:01:22;56131.97;;;-142.13;46.41
11712;BME280;5912;51.034;6.984;2023-07-13T06:03:49;56127.97;;;-142.13;46.10
11712;BME280;5912;51.034;6.984;2023-07-13T06:06:15;56115.94;;;-142.13;45.63
11712;BME280;5912;51.034;6.984;2023-07-13T06:08:40;56115.94;;;-142.13;46.07
11712;BME280;5912;51.034;6.984;2023-07-13T06:11:20;56091.91;;;-142.13;45.63
11712;BME280;5912;51.034;6.984;2023-07-13T06:13:46;56123.97;;;-142.13;46.10
11712;BME280;5912;51.034;6.984;2023-07-13T06:16:12;56137.97;;;-142.13;46.20
11712;BME280;5912;51.034;6.984;2023-07-13T06:18:38;56137.97;;;-142.13;46.91
11712;BME280;5912;51.034;6.984;2023-07-13T06:21:16;56119.97;;;-142.13;46.73
11712;BME280;5912;51.034;6.984;2023-07-13T06:23:41;56099.94;;;-142.13;46.07
11712;BME280;5912;51.034;6.984;2023-07-13T06:26:08;56087.91;;;-142.13;45.14
11712;BME280;5912;51.034;6.984;2023-07-13T06:28:34;56055.84;;;-142.13;43.57
11712;BME280;5912;51.034;6.984;2023-07-13T06:30:59;56059.88;;;-142.13;42.38
11712;BME280;5912;51.034;6.984;2023-07-13T06:33:25;56021.81;;;-142.13;41.05
11712;BME280;5912;51.034;6.984;2023-07-13T06:35:50;56009.78;;;-142.13;40.28
11712;BME280;5912;51.034;6.984;2023-07-13T06:38:16;55997.78;;;-142.13;38.82
11712;BME280;5912;51.034;6.984;2023-07-13T06:40:41;55979.75;;;-142.13;37.99
11712;BME280;5912;51.034;6.984;2023-07-13T06:43:07;55971.72;;;-142.13;37.72
11712;BME280;5912;51.034;6.984;2023-07-13T06:45:44;55955.72;;;-142.13;37.21
11712;BME280;5912;51.034;6.984;2023-07-13T06:48:15;55911.66;;;-142.13;36.37
11712;BME280;5912;51.034;6.984;2023-07-13T06:50:42;55875.59;;;-142.13;35.32
11712;BME280;5912;51.034;6.984;2023-07-13T06:53:08;55893.63;;;-142.13;34.60
11712;BME280;5912;51.034;6.984;2023-07-13T06:55:33;55867.56;;;-142.13;34.17
11712;BME280;5912;51.034;6.984;2023-07-13T06:57:58;55887.59;;;-142.13;33.75
11712;BME280;5912;51.034;6.984;2023-07-13T07:00:24;55861.56;;;-142.13;33.72
11712;BME280;5912;51.034;6.984;2023-07-13T07:02:49;55857.56;;;-142.13;33.63
11712;BME280;5912;51.034;6.984;2023-07-13T07:05:14;55821.50;;;-142.13;33.14
11712;BME280;5912;51.034;6.984;2023-07-13T07:07:40;55821.50;;;-142.13;32.27
11712;BME280;5912;51.034;6.984;2023-07-13T07:10:05;55807.50;;;-142.13;31.92
11712;BME280;5912;51.034;6.984;2023-07-13T07:12:31;55767.44;;;-142.13;31.66
11712;BME280;5912;51.034;6.984;2023-07-13T07:14:57;55757.41;;;-142.13;30.62
11712;BME280;5912;51.034;6.984;2023-07-13T07:17:23;55741.41;;;-142.13;30.08
11712;BME280;5912;51.034;6.984;2023-07-13T07:19:48;55743.41;;;-142.13;29.95
11712;BME280;5912;51.034;6.984;2023-07-13T07:22:13;55739.38;;;-142.13;29.71
11712;BME280;5912;51.034;6.984;2023-07-13T07:24:39;55769.44;;;-142.13;30.29
11712;BME280;5912;51.034;6.984;2023-07-13T07:27:04;55717.34;;;-142.13;30.75
11712;BME280;5912;51.034;6.984;2023-07-13T07:29:29;55771.44;;;-142.13;31.17
11712;BME280;5912;51.034;6.984;2023-07-13T07:31:55;55773.44;;;-142.13;30.97
11712;BME280;5912;51.034;6.984;2023-07-13T07:34:20;55823.50;;;-142.13;31.53
11712;BME280;5912;51.034;6.984;2023-07-13T07:36:46;55855.56;;;-142.13;32.74
11712;BME280;5912;51.034;6.984;2023-07-13T07:39:11;55881.59;;;-142.13;32.90
11712;BME280;5912;51.034;6.984;2023-07-13T07:41:37;55889.59;;;-142.13;33.82
11712;BME280;5912;51.034;6.984;2023-07-13T07:44:03;55927.66;;;-142.13;34.70
11712;BME280;5912;51.034;6.984;2023-07-13T07:46:28;55911.66;;;-142.13;35.00
11712;BME280;5912;51.034;6.984;2023-07-13T07:48:55;55901.63;;;-142.13;35.09
11712;BME280;5912;51.034;6.984;2023-07-13T07:51:21;55917.66;;;-142.13;35.51
11712;BME280;5912;51.034;6.984;2023-07-13T07:53:47;55923.66;;;-142.13;35.00
11712;BME280;5912;51.034;6.984;2023-07-13T07:56:12;55903.63;;;-142.13;34.68
11712;BME280;5912;51.034;6.984;2023-07-13T07:58:38;55869.59;;;-142.13;33.63
11712;BME280;5912;51.034;6.984;2023-07-13T08:01:06;55863.56;;;-142.13;32.77
11712;BME280;5912;51.034;6.984;2023-07-13T08:03:32;55871.59;;;-142.13;33.40
11712;BME280;5912;51.034;6.984;2023-07-13T08:05:58;55835.53;;;-142.13;32.94
11712;BME280;5912;51.034;6.984;2023-07-13T08:08:23;55855.56;;;-142.13;33.19
11712;BME280;5912;51.034;6.984;2023-07-13T08:10:49;55841.53;;;-142.13;33.28
11712;BME280;5912;51.034;6.984;2023-07-13T08:13:14;55851.56;;;-142.13;32.89
11712;BME280;5912;51.034;6.984;2023-07-13T08:15:39;55843.53;;;-142.13;32.65
11712;BME280;5912;51.034;6.984;2023-07-13T08:18:05;55855.56;;;-142.13;33.58
11712;BME280;5912;51.034;6.984;2023-07-13T08:20:31;55851.56;;;-142.13;33.89
11712;BME280;5912;51.034;6.984;2023-07-13T08:22:56;55863.56;;;-142.13;33.79
11712;BME280;5912;51.034;6.984;2023-07-13T08:25:22;55847.56;;;-142.13;33.46
11712;BME280;5912;51.034;6.984;2023-07-13T08:27:48;55809.50;;;-142.13;32.95
11712;BME280;5912;51.034;6.984;2023-07-13T08:30:13;55813.50;;;-142.13;32.33
11712;BME280;5912;51.034;6.984;2023-07-13T08:32:38;55809.50;;;-142.13;32.24
11712;BME280;5912;51.034;6.984;2023-07-13T08:35:05;55805.50;;;-142.13;31.61
11712;BME280;5912;51.034;6.984;2023-07-13T08:37:30;55823.50;;;-142.13;31.94
11712;BME280;5912;51.034;6.984;2023-07-13T08:39:56;55801.47;;;-142.13;32.34
11712;BME280;5912;51.034;6.984;2023-07-13T08:45:00;55811.50;;;-142.13;32.57
11712;BME280;5912;51.034;6.984;2023-07-13T08:47:30;55871.59;;;-142.13;32.72
11712;BME280;5912;51.034;6.984;2023-07-13T08:49:57;55847.56;;;-142.13;33.45
11712;BME280;5912;51.034;6.984;2023-07-13T08:52:36;55867.56;;;-142.13;33.31
11712;BME280;5912;51.034;6.984;2023-07-13T08:55:12;55859.56;;;-142.13;33.16
11712;BME280;5912;51.034;6.984;2023-07-13T08:57:39;55859.56;;;-142.13;32.77
11712;BME280;5912;51.034;6.984;2023-07-13T09:00:10;55839.53;;;-142.13;33.35
11712;BME280;5912;51.034;6.984;2023-07-13T09:02:57;55805.50;;;-142.13;32.19
11712;BME280;5912;51.034;6.984;2023-07-13T09:10:46;55819.50;;;-142.13;31.53
11712;BME280;5912;51.034;6.984;2023-07-13T09:16:03;55803.47;;;-142.13;31.62
11712;BME280;5912;51.034;6.984;2023-07-13T09:18:35;55799.47;;;-142.13;31.68
11712;BME280;5912;51.034;6.984;2023-07-13T09:21:04;55803.47;;;-142.13;32.09
11712;BME280;5912;51.034;6.984;2023-07-13T09:23:34;55815.50;;;-142.13;32.00
11712;BME280;5912;51.034;6.984;2023-07-13T09:26:22;55773.44;;;-142.13;31.41
11712;BME280;5912;51.034;6.984;2023-07-13T09:28:57;55747.41;;;-142.13;30.39
11712;BME280;5912;51.034;6.984;2023-07-13T09:31:30;55747.41;;;-142.13;30.36
11712;BME280;5912;51.034;6.984;2023-07-13T09:33:59;55723.38;;;-142.13;30.06
11712;BME280;5912;51.034;6.984;2023-07-13T09:36:33;55735.38;;;-142.13;29.54
11712;BME280;5912;51.034;6.984;2023-07-13T09:41:58;55771.44;;;-142.13;30.99
11712;BME280;5912;51.034;6.984;2023-07-13T09:44:36;55769.44;;;-142.13;31.26
11712;BME280;5912;51.034;6.984;2023-07-13T09:47:02;55803.47;;;-142.13;30.97
11712;BME280;5912;51.034;6.984;2023-07-13T09:49:37;55787.47;;;-142.13;31.45
11712;BME280;5912;51.034;6.984;2023-07-13T09:52:05;55807.50;;;-142.13;31.85
11712;BME280;5912;51.034;6.984;2023-07-13T09:54:35;55793.47;;;-142.13;31.41
11712;BME280;5912;51.034;6.984;2023-07-13T09:57:03;55785.47;;;-142.13;32.28
11712;BME280;5912;51.034;6.984;2023-07-13T09:59:31;55771.44;;;-142.13;30.45
11712;BME280;5912;51.034;6.984;2023-07-13T10:01:56;55763.44;;;-142.13;31.05
11712;BME280;5912;51.034;6.984;2023-07-13T10:04:31;55769.44;;;-142.13;30.83
11712;BME280;5912;51.034;6.984;2023-07-13T10:07:09;55769.44;;;-142.13;31.05
11712;BME280;5912;51.034;6.984;2023-07-13T10:09:36;55795.47;;;-142.13;30.28
11712;BME280;5912;51.034;6.984;2023-07-13T10:12:04;55777.44;;;-142.13;30.83
11712;BME280;5912;51.034;6.984;2023-07-13T10:14:38;55787.47;;;-142.13;30.94
11712;BME280;5912;51.034;6.984;2023-07-13T10:17:05;55747.41;;;-142.13;31.19
11712;BME280;5912;51.034;6.984;2023-07-13T10:19:35;55737.38;;;-142.13;30.56
11712;BME280;5912;51.034;6.984;2023-07-13T10:22:18;55725.38;;;-142.13;29.78
11712;BME280;5912;51.034;6.984;2023-07-13T10:24:48;55733.38;;;-142.13;29.09
11712;BME280;5912;51.034;6.984;2023-07-13T10:27:19;55711.34;;;-142.13;29.31
11712;BME280;5912;51.034;6.984;2023-07-13T10:32:27;55687.31;;;-142.13;28.85
11712;BME280;5912;51.034;6.984;2023-07-13T10:34:53;55703.34;;;-142.13;29.10
11712;BME280;5912;51.034;6.984;2023-07-13T10:37:23;55699.34;;;-142.13;28.61
11712;BME280;5912;51.034;6.984;2023-07-13T10:39:52;55681.31;;;-142.13;28.51
11712;BME280;5912;51.034;6.984;2023-07-13T10:42:32;55695.31;;;-142.13;28.23
11712;BME280;5912;51.034;6.984;2023-07-13T10:44:58;55661.28;;;-142.13;27.92
11712;BME280;5912;51.034;6.984;2023-07-13T10:47:24;55665.28;;;-142.13;28.19
11712;BME280;5912;51.034;6.984;2023-07-13T10:49:54;55667.28;;;-142.13;27.18
11712;BME280;5912;51.034;6.984;2023-07-13T10:52:42;55667.28;;;-142.13;27.70
11712;BME280;5912;51.034;6.984;2023-07-13T10:56:04;55687.31;;;-142.13;27.75
11712;BME280;5912;51.034;6.984;2023-07-13T10:58:36;55715.34;;;-142.13;28.09
11712;BME280;5912;51.034;6.984;2023-07-13T11:03:32;55763.44;;;-142.13;29.02
11712;BME280;5912;51.034;6.984;2023-07-13T11:06:17;55765.44;;;-142.13;29.34
11712;BME280;5912;51.034;6.984;2023-07-13T11:09:18;55783.47;;;-142.13;29.78
11712;BME280;5912;51.034;6.984;2023-07-13T11:11:44;55787.47;;;-142.13;30.44
11712;BME280;5912;51.034;6.984;2023-07-13T11:14:29;55791.47;;;-142.13;30.46
11712;BME280;5912;51.034;6.984;2023-07-13T11:16:54;55811.50;;;-142.13;30.66
11712;BME280;5912;51.034;6.984;2023-07-13T11:25:00;55783.47;;;-142.13;30.51
11712;BME280;5912;51.034;6.984;2023-07-13T11:27:41;55783.47;;;-142.13;29.54
11712;BME280;5912;51.034;6.984;2023-07-13T11:30:24;55795.47;;;-142.13;30.04
11712;BME280;5912;51.034;6.984;2023-07-13T11:35:53;55767.44;;;-142.13;29.84
11712;BME280;5912;51.034;6.984;2023-07-13T11:40:55;55703.34;;;-142.13;28.05
11712;BME280;5912;51.034;6.984;2023-07-13T11:43:23;55703.34;;;-142.13;28.21
11712;BME280;5912;51.034;6.984;2023-07-13T11:45:50;55695.31;;;-142.13;28.23
11712;BME280;5912;51.034;6.984;2023-07-13T11:48:24;55723.38;;;-142.13;28.43
11712;BME280;5912;51.034;6.984;2023-07-13T11:50:56;55767.44;;;-142.13;29.23
11712;BME280;5912;51.034;6.984;2023-07-13T11:53:24;55779.44;;;-142.13;29.30
11712;BME280;5912;51.034;6.984;2023-07-13T11:55:51;55795.47;;;-142.13;30.42
11712;BME280;5912;51.034;6.984;2023-07-13T11:58:20;55803.47;;;-142.13;30.74
11712;BME280;5912;51.034;6.984;2023-07-13T12:00:49;55851.56;;;-142.13;30.27
11712;BME280;5912;51.034;6.984;2023-07-13T12:03:18;55795.47;;;-142.13;30.17
11712;BME280;5912;51.034;6.984;2023-07-13T12:06:05;55767.44;;;-142.13;30.12
11712;BME280;5912;51.034;6.984;2023-07-13T12:08:37;55753.41;;;-142.13;29.16
11712;BME280;5912;51.034;6.984;2023-07-13T12:11:11;55761.41;;;-142.13;29.05
11712;BME280;5912;51.034;6.984;2023-07-13T12:13:39;55753.41;;;-142.13;28.48
11712;BME280;5912;51.034;6.984;2023-07-13T12:16:12;55771.44;;;-142.13;27.82
11712;BME280;5912;51.034;6.984;2023-07-13T12:18:39;55765.44;;;-142.13;28.72
11712;BME280;5912;51.034;6.984;2023-07-13T12:21:05;55749.41;;;-142.13;28.22
11712;BME280;5912;51.034;6.984;2023-07-13T12:23:34;55733.38;;;-142.13;27.95
11712;BME280;5912;51.034;6.984;2023-07-13T12:26:05;55731.38;;;-142.13;28.53
11712;BME280;5912;51.034;6.984;2023-07-13T12:28:32;55719.38;;;-142.13;27.67
11712;BME280;5912;51.034;6.984;2023-07-13T12:31:04;55667.28;;;-142.13;27.16
11712;BME280;5912;51.034;6.984;2023-07-13T12:33:31;55673.28;;;-142.13;26.63
11712;BME280;5912;51.034;6.984;2023-07-13T12:36:00;55703.34;;;-142.13;27.01
11712;BME280;5912;51.034;6.984;2023-07-13T12:38:27;55685.31;;;-142.13;27.84
11712;BME280;5912;51.034;6.984;2023-07-13T12:40:53;55691.31;;;-142.13;27.66
11712;BME280;5912;51.034;6.984;2023-07-13T12:43:22;55629.22;;;-142.13;26.00
11712;BME280;5912;51.034;6.984;2023-07-13T12:46:15;55643.25;;;-142.13;26.35
11712;BME280;5912;51.034;6.984;2023-07-13T12:48:42;55679.31;;;-142.13;26.87
11712;BME280;5912;51.034;6.984;2023-07-13T12:51:12;55687.31;;;-142.13;26.99
11712;BME280;5912;51.034;6.984;2023-07-13T12:53:47;55669.28;;;-142.13;27.18
11712;BME280;5912;51.034;6.984;2023-07-13T12:56:24;55661.28;;;-142.13;27.31
11712;BME280;5912;51.034;6.984;2023-07-13T12:58:56;55635.25;;;-142.13;26.33
11712;BME280;5912;51.034;6.984;2023-07-13T13:01:22;55667.28;;;-142.13;25.86
11712;BME280;5912;51.034;6.984;2023-07-13T13:03:52;55659.28;;;-142.13;26.67
11712;BME280;5912;51.034;6.984;2023-07-13T13:08:46;55699.34;;;-142.13;26.87
11712;BME280;5912;51.034;6.984;2023-07-13T13:11:14;55691.31;;;-142.13;27.16
11712;BME280;5912;51.034;6.984;2023-07-13T13:13:41;55693.31;;;-142.13;27.02
11712;BME280;5912;51.034;6.984;2023-07-13T13:16:49;55683.31;;;-142.13;26.78
11712;BME280;5912;51.034;6.984;2023-07-13T13:21:40;55707.34;;;-142.13;27.27
11712;BME280;5912;51.034;6.984;2023-07-13T13:24:27;55677.31;;;-142.13;27.07
11712;BME280;5912;51.034;6.984;2023-07-13T13:26:53;55641.25;;;-142.13;26.17
11712;BME280;5912;51.034;6.984;2023-07-13T13:29:23;55627.22;;;-142.13;25.21